sensor_id;sensor_type;location;lat;lon;timestamp;pressure;altitude;pressure_sealevel;temperature;humidity
84169;BME280;74295;50.146;8.794;2024-03-22T00:09:34;101400.78;;;7.36;85.52
84169;BME280;74295;50.146;8.794;2024-03-22T00:19:36;101388.03;;;7.24;86.03
84169;BME280;74295;50.146;8.794;2024-03-22T00:29:39;101375.97;;;7.20;85.28
84169;BME280;74295;50.146;8.794;2024-03-22T00:39:40;101366.53;;;6.96;85.39
84169;BME280;74295;50.146;8.794;2024-03-22T00:49:43;101372.53;;;6.98;85.26
84169;BME280;74295;50.146;8.794;2024-03-22T00:59:45;101352.91;;;6.77;85.79
84169;BME280;74295;50.146;8.794;2024-03-22T01:09:49;101334.56;;;6.66;85.57
84169;BME280;74295;50.146;8.794;2024-03-22T01:19:51;101326.41;;;6.53;86.23
84169;BME280;74295;50.146;8.794;2024-03-22T01:29:54;101344.66;;;6.30;86.78
84169;BME280;74295;50.146;8.794;2024-03-22T01:39:57;101327.03;;;6.27;86.16
84169;BME280;74295;50.146;8.794;2024-03-22T01:50:01;101327.81;;;6.21;87.11
84169;BME280;74295;50.146;8.794;2024-03-22T02:00:03;101318.91;;;6.21;86.95
84169;BME280;74295;50.146;8.794;2024-03-22T02:10:08;101306.59;;;6.12;86.70
84169;BME280;74295;50.146;8.794;2024-03-22T02:20:11;101289.00;;;5.88;87.24
84169;BME280;74295;50.146;8.794;2024-03-22T02:30:14;101279.72;;;5.76;88.47
84169;BME280;74295;50.146;8.794;2024-03-22T02:40:16;101279.59;;;5.63;89.82
84169;BME280;74295;50.146;8.794;2024-03-22T02:50:19;101278.00;;;5.69;87.82
84169;BME280;74295;50.146;8.794;2024-03-22T03:00:21;101266.75;;;5.59;88.30
84169;BME280;74295;50.146;8.794;2024-03-22T03:10:24;101262.19;;;5.59;87.69
84169;BME280;74295;50.146;8.794;2024-03-22T03:20:26;101253.03;;;5.54;87.42
84169;BME280;74295;50.146;8.794;2024-03-22T03:30:29;101257.50;;;5.47;87.57
84169;BME280;74295;50.146;8.794;2024-03-22T03:40:31;101244.00;;;5.40;88.08
84169;BME280;74295;50.146;8.794;2024-03-22T03:50:34;101230.03;;;5.51;88.95
84169;BME280;74295;50.146;8.794;2024-03-22T04:00:35;101224.47;;;5.53;87.98
84169;BME280;74295;50.146;8.794;2024-03-22T04:10:38;101230.94;;;5.37;88.82
84169;BME280;74295;50.146;8.794;2024-03-22T04:20:40;101208.00;;;5.41;88.24
84169;BME280;74295;50.146;8.794;2024-03-22T04:30:43;101200.78;;;5.63;87.69
84169;BME280;74295;50.146;8.794;2024-03-22T04:40:45;101190.56;;;5.79;88.16
84169;BME280;74295;50.146;8.794;2024-03-22T04:50:48;101201.91;;;5.75;87.17
84169;BME280;74295;50.146;8.794;2024-03-22T05:00:56;101200.44;;;5.72;87.21
84169;BME280;74295;50.146;8.794;2024-03-22T05:10:59;101197.72;;;5.87;88.39
84169;BME280;74295;50.146;8.794;2024-03-22T05:21:01;101190.63;;;6.07;87.32
84169;BME280;74295;50.146;8.794;2024-03-22T05:31:05;101182.50;;;6.34;88.59
84169;BME280;74295;50.146;8.794;2024-03-22T05:41:07;101197.97;;;6.26;86.66
84169;BME280;74295;50.146;8.794;2024-03-22T05:51:10;101189.97;;;6.32;87.02
84169;BME280;74295;50.146;8.794;2024-03-22T06:01:12;101177.31;;;6.33;86.44
84169;BME280;74295;50.146;8.794;2024-03-22T06:11:15;101175.22;;;6.62;86.59
84169;BME280;74295;50.146;8.794;2024-03-22T06:21:17;101158.22;;;7.28;85.09
84169;BME280;74295;50.146;8.794;2024-03-22T06:31:23;101147.47;;;7.80;82.54
84169;BME280;74295;50.146;8.794;2024-03-22T06:41:25;101138.06;;;8.29;82.52
84169;BME280;74295;50.146;8.794;2024-03-22T06:51:28;101136.81;;;8.88;80.85
84169;BME280;74295;50.146;8.794;2024-03-22T07:01:30;101131.38;;;9.57;79.05
84169;BME280;74295;50.146;8.794;2024-03-22T07:11:33;101114.03;;;9.64;78.35
84169;BME280;74295;50.146;8.794;2024-03-22T07:21:35;101107.50;;;9.72;78.55
84169;BME280;74295;50.146;8.794;2024-03-22T07:31:38;101112.03;;;9.78;78.76
84169;BME280;74295;50.146;8.794;2024-03-22T07:41:40;101101.41;;;10.01;78.52
84169;BME280;74295;50.146;8.794;2024-03-22T07:51:43;101102.88;;;10.58;77.02
84169;BME280;74295;50.146;8.794;2024-03-22T08:01:44;101101.50;;;10.67;76.58
84169;BME280;74295;50.146;8.794;2024-03-22T08:11:48;101089.28;;;11.05;76.04
84169;BME280;74295;50.146;8.794;2024-03-22T08:21:50;101074.38;;;11.26;75.38
84169;BME280;74295;50.146;8.794;2024-03-22T08:31:53;101056.09;;;11.33;74.37
84169;BME280;74295;50.146;8.794;2024-03-22T08:41:55;101052.16;;;11.70;74.05
84169;BME280;74295;50.146;8.794;2024-03-22T08:51:58;101056.16;;;12.02;72.30
84169;BME280;74295;50.146;8.794;2024-03-22T09:02:00;101037.81;;;12.88;69.51
84169;BME280;74295;50.146;8.794;2024-03-22T09:12:03;101013.09;;;13.89;65.51
84169;BME280;74295;50.146;8.794;2024-03-22T09:22:05;101006.56;;;14.28;63.68
84169;BME280;74295;50.146;8.794;2024-03-22T09:32:08;100988.50;;;14.48;62.68
84169;BME280;74295;50.146;8.794;2024-03-22T09:42:16;100976.38;;;14.87;62.09
84169;BME280;74295;50.146;8.794;2024-03-22T09:52:20;100967.38;;;15.50;59.87
84169;BME280;74295;50.146;8.794;2024-03-22T10:02:23;100962.25;;;16.15;57.72
84169;BME280;74295;50.146;8.794;2024-03-22T10:12:28;100936.50;;;16.01;57.61
84169;BME280;74295;50.146;8.794;2024-03-22T10:22:29;100924.13;;;15.89;58.31
84169;BME280;74295;50.146;8.794;2024-03-22T10:32:32;100905.44;;;15.71;58.58
84169;BME280;74295;50.146;8.794;2024-03-22T10:42:35;100882.91;;;16.05;58.06
84169;BME280;74295;50.146;8.794;2024-03-22T10:52:40;100877.97;;;16.02;57.42
84169;BME280;74295;50.146;8.794;2024-03-22T11:02:46;100853.53;;;15.81;58.25
84169;BME280;74295;50.146;8.794;2024-03-22T11:12:51;100839.31;;;15.74;59.16
84169;BME280;74295;50.146;8.794;2024-03-22T11:22:53;100816.16;;;16.06;58.41
84169;BME280;74295;50.146;8.794;2024-03-22T11:32:56;100795.44;;;16.70;56.43
84169;BME280;74295;50.146;8.794;2024-03-22T11:42:58;100780.25;;;17.23;55.89
84169;BME280;74295;50.146;8.794;2024-03-22T11:53:02;100765.91;;;17.56;55.09
84169;BME280;74295;50.146;8.794;2024-03-22T12:03:06;100750.63;;;17.40;55.68
84169;BME280;74295;50.146;8.794;2024-03-22T12:13:09;100739.88;;;17.53;55.58
84169;BME280;74295;50.146;8.794;2024-03-22T12:23:11;100711.47;;;17.83;55.20
84169;BME280;74295;50.146;8.794;2024-03-22T12:33:14;100696.19;;;17.72;55.82
84169;BME280;74295;50.146;8.794;2024-03-22T12:43:16;100692.06;;;17.75;55.84
84169;BME280;74295;50.146;8.794;2024-03-22T12:53:19;100686.19;;;17.91;55.83
84169;BME280;74295;50.146;8.794;2024-03-22T13:03:20;100668.06;;;17.56;55.43
84169;BME280;74295;50.146;8.794;2024-03-22T13:13:24;100665.19;;;17.72;54.90
84169;BME280;74295;50.146;8.794;2024-03-22T13:23:25;100640.53;;;18.05;53.84
84169;BME280;74295;50.146;8.794;2024-03-22T13:33:28;100622.63;;;17.84;54.64
84169;BME280;74295;50.146;8.794;2024-03-22T13:43:30;100601.19;;;17.52;55.57
84169;BME280;74295;50.146;8.794;2024-03-22T13:53:33;100606.56;;;17.19;56.34
84169;BME280;74295;50.146;8.794;2024-03-22T14:03:35;100582.31;;;16.97;56.56
84169;BME280;74295;50.146;8.794;2024-03-22T14:13:38;100563.47;;;16.86;57.48
84169;BME280;74295;50.146;8.794;2024-03-22T14:23:40;100565.50;;;16.65;58.59
84169;BME280;74295;50.146;8.794;2024-03-22T14:33:43;100536.69;;;16.78;58.11
84169;BME280;74295;50.146;8.794;2024-03-22T14:43:44;100528.53;;;16.73;58.47
84169;BME280;74295;50.146;8.794;2024-03-22T14:53:47;100524.22;;;16.52;58.99
84169;BME280;74295;50.146;8.794;2024-03-22T15:03:49;100490.81;;;16.60;59.12
84169;BME280;74295;50.146;8.794;2024-03-22T15:13:53;100463.06;;;16.76;58.92
84169;BME280;74295;50.146;8.794;2024-03-22T15:23:55;100458.56;;;16.95;58.11
84169;BME280;74295;50.146;8.794;2024-03-22T15:33:58;100433.94;;;16.90;57.96
84169;BME280;74295;50.146;8.794;2024-03-22T15:44:00;100420.06;;;16.77;57.99
84169;BME280;74295;50.146;8.794;2024-03-22T15:54:03;100409.75;;;16.64;58.93
84169;BME280;74295;50.146;8.794;2024-03-22T16:04:05;100383.16;;;16.69;58.92
84169;BME280;74295;50.146;8.794;2024-03-22T16:14:08;100370.88;;;17.00;58.48
84169;BME280;74295;50.146;8.794;2024-03-22T16:24:10;100353.41;;;18.38;55.09
84169;BME280;74295;50.146;8.794;2024-03-22T16:34:13;100345.91;;;18.43;55.02
84169;BME280;74295;50.146;8.794;2024-03-22T16:44:15;100332.69;;;18.08;55.61
84169;BME280;74295;50.146;8.794;2024-03-22T16:54:19;100330.53;;;17.06;58.53
84169;BME280;74295;50.146;8.794;2024-03-22T17:04:20;100316.97;;;16.67;59.82
84169;BME280;74295;50.146;8.794;2024-03-22T17:14:23;100326.44;;;16.36;60.04
84169;BME280;74295;50.146;8.794;2024-03-22T17:24:25;100316.06;;;15.90;61.57
84169;BME280;74295;50.146;8.794;2024-03-22T17:34:29;100310.50;;;15.51;62.57
84169;BME280;74295;50.146;8.794;2024-03-22T17:44:30;100317.13;;;15.20;63.58
84169;BME280;74295;50.146;8.794;2024-03-22T17:54:34;100304.91;;;14.62;65.45
84169;BME280;74295;50.146;8.794;2024-03-22T18:04:35;100302.97;;;14.33;67.11
84169;BME280;74295;50.146;8.794;2024-03-22T18:14:38;100296.09;;;14.10;67.90
84169;BME280;74295;50.146;8.794;2024-03-22T18:24:40;100287.31;;;13.88;69.01
84169;BME280;74295;50.146;8.794;2024-03-22T18:34:43;100278.53;;;13.56;69.61
84169;BME280;74295;50.146;8.794;2024-03-22T18:44:45;100257.50;;;12.95;72.70
84169;BME280;74295;50.146;8.794;2024-03-22T18:54:55;100259.03;;;12.44;74.98
84169;BME280;74295;50.146;8.794;2024-03-22T19:04:59;100241.69;;;12.14;76.15
84169;BME280;74295;50.146;8.794;2024-03-22T19:15:02;100241.19;;;11.64;77.81
84169;BME280;74295;50.146;8.794;2024-03-22T19:25:06;100224.63;;;11.44;78.48
84169;BME280;74295;50.146;8.794;2024-03-22T19:35:09;100219.59;;;11.31;79.07
84169;BME280;74295;50.146;8.794;2024-03-22T19:45:12;100222.63;;;11.34;78.92
84169;BME280;74295;50.146;8.794;2024-03-22T19:55:15;100214.25;;;11.14;79.89
84169;BME280;74295;50.146;8.794;2024-03-22T20:05:17;100208.47;;;10.89;80.63
84169;BME280;74295;50.146;8.794;2024-03-22T20:15:20;100194.59;;;10.64;81.60
84169;BME280;74295;50.146;8.794;2024-03-22T20:25:25;100194.06;;;10.46;82.60
